Terminal Aerodrome Forecast
Issued by NWS

Home | Current Version | Previous Version | Text Only | Print | Product List | Glossary Off
Versions: 1 2 3 4 5 6 7 8 9 10 11 12 13 14

000
FTUS43 KTOP 191123
TAFMHK
TAF
KMHK 191123Z 1912/2012 VRB03KT 2SM BR SKC
     FM191300 18003KT P6SM SKC
     FM191800 19007KT P6SM SKC
     FM200500 19006KT P6SM FEW250 WS011/20042KT=

USA.gov is the U.S. government's official web portal to all federal, state and local government web resources and services.